Time;durP1;ratioP1;P1;durP2;ratioP2;P2;SDS_P1;SDS_P2;PMS_P1;PMS_P2;Temp;Humidity;BMP_temperature;BMP_pressure;BME280_temperature;BME280_humidity;BME280_pressure;Samples;Min_cycle;Max_cycle;Signal;HPM_P1;HPM_P2
2022/04/21 00:00:36;;;;;;;;;12.25;8.00;;;;;15.86;37.21;100774.69;4991822;28;45422;-60
2022/04/21 00:03:02;;;;;;;;;10.25;8.50;;;;;15.84;37.10;100770.47;4994254;28;45316;-60
2022/04/21 00:05:28;;;;;;;;;9.50;9.00;;;;;15.80;37.17;100772.53;4994159;28;45913;-61
2022/04/21 00:07:54;;;;;;;;;11.00;10.00;;;;;15.79;37.04;100768.16;4992116;28;45324;-62
2022/04/21 00:10:21;;;;;;;;;7.25;7.25;;;;;15.77;37.09;100759.47;4989173;28;45297;-62
2022/04/21 00:12:47;;;;;;;;;15.50;9.50;;;;;15.81;37.07;100770.72;4992540;28;45162;-61
2022/04/21 00:15:13;;;;;;;;;11.25;8.00;;;;;15.79;37.03;100764.66;4993971;28;46163;-64
2022/04/21 00:17:39;;;;;;;;;9.75;7.75;;;;;15.76;37.36;100755.16;4991609;28;45819;-65
2022/04/21 00:20:05;;;;;;;;;10.50;10.50;;;;;15.74;37.90;100759.75;4992712;28;45222;-64
2022/04/21 00:25:15;;;;;;;;;12.00;9.50;;;;;15.63;38.20;100757.09;4992430;28;45342;-62
2022/04/21 00:27:42;;;;;;;;;9.75;8.75;;;;;15.65;37.63;100757.00;4990650;28;45316;-61
2022/04/21 00:30:09;;;;;;;;;9.50;8.25;;;;;15.63;37.63;100744.66;4991254;28;45344;-64
2022/04/21 00:32:36;;;;;;;;;10.50;8.25;;;;;15.61;37.80;100743.09;4992103;28;45328;-64
2022/04/21 00:35:03;;;;;;;;;10.25;9.00;;;;;15.60;37.63;100741.38;4989641;28;45454;-63
2022/04/21 00:37:28;;;;;;;;;6.50;6.50;;;;;15.56;37.50;100740.81;4993185;28;45404;-63
2022/04/21 00:39:54;;;;;;;;;8.75;8.75;;;;;15.52;37.30;100742.00;4991836;28;45409;-61
2022/04/21 00:42:19;;;;;;;;;9.25;7.25;;;;;15.50;37.34;100740.44;4992123;28;45432;-60
2022/04/21 00:44:45;;;;;;;;;10.25;9.00;;;;;15.49;37.23;100741.41;4993857;28;45516;-61
2022/04/21 00:47:11;;;;;;;;;12.25;8.00;;;;;15.49;36.95;100744.06;4977798;28;45496;-63
2022/04/21 00:49:37;;;;;;;;;9.25;7.00;;;;;15.47;37.79;100738.84;4986835;28;45953;-59
2022/04/21 00:52:03;;;;;;;;;7.00;6.50;;;;;15.46;37.55;100737.16;4989930;28;45253;-62
2022/04/21 00:54:32;;;;;;;;;8.25;7.50;;;;;15.47;37.40;100735.34;4991689;28;46127;-60
2022/04/21 00:57:03;;;;;;;;;9.25;8.00;;;;;15.47;37.25;100736.19;4986611;28;45214;-60
2022/04/21 00:59:30;;;;;;;;;7.00;7.00;;;;;15.46;37.61;100731.84;4990460;28;45438;-61
2022/04/21 01:04:40;;;;;;;;;8.25;7.50;;;;;15.42;37.09;100726.94;4993606;28;45770;-61
2022/04/21 01:07:09;;;;;;;;;9.50;8.00;;;;;15.41;37.21;100726.09;4994078;28;46391;-60
2022/04/21 01:09:38;;;;;;;;;8.75;7.00;;;;;15.41;37.44;100714.63;4992040;28;45503;-61
2022/04/21 01:12:08;;;;;;;;;11.00;9.75;;;;;15.38;37.44;100720.16;4988662;28;45380;-59
2022/04/21 01:14:34;;;;;;;;;7.00;7.00;;;;;15.36;36.88;100715.81;4990716;28;45367;-59
2022/04/21 01:17:03;;;;;;;;;7.00;7.00;;;;;15.34;37.29;100714.28;4993387;28;45424;-59
2022/04/21 01:19:28;;;;;;;;;9.00;7.75;;;;;15.30;37.16;100713.66;4973075;28;45346;-61
2022/04/21 01:21:54;;;;;;;;;7.50;7.50;;;;;15.28;36.99;100712.09;4991695;28;45300;-58
2022/04/21 01:24:19;;;;;;;;;12.25;10.00;;;;;15.23;37.29;100704.50;4990647;28;45435;-59
2022/04/21 01:26:46;;;;;;;;;9.75;9.75;;;;;15.18;37.23;100709.34;4990190;28;45443;-62
2022/04/21 01:29:12;;;;;;;;;14.50;9.00;;;;;15.13;37.39;100711.50;4993203;28;45640;-59
2022/04/21 01:31:38;;;;;;;;;9.00;9.00;;;;;15.09;36.87;100704.75;4993649;28;45500;-59
2022/04/21 01:34:04;;;;;;;;;11.00;8.75;;;;;15.08;36.92;100703.88;4990167;28;45577;-59
2022/04/21 01:36:30;;;;;;;;;11.00;10.00;;;;;15.06;36.85;100710.28;4990912;28;45647;-60
2022/04/21 01:41:40;;;;;;;;;10.00;7.50;;;;;15.03;36.86;100705.22;4990933;28;45461;-58
2022/04/21 01:44:05;;;;;;;;;9.25;8.75;;;;;14.99;37.25;100701.97;4989205;28;45876;-59
2022/04/21 01:46:31;;;;;;;;;10.25;8.50;;;;;14.95;37.32;100699.69;4992109;28;45428;-60
2022/04/21 01:48:56;;;;;;;;;7.50;6.75;;;;;14.91;37.70;100693.75;4990033;28;45448;-59
2022/04/21 01:51:22;;;;;;;;;13.00;11.25;;;;;14.90;38.07;100685.94;4988564;28;45304;-61
2022/04/21 01:53:48;;;;;;;;;13.25;8.75;;;;;14.85;37.63;100693.38;4971017;28;47646;-60
2022/04/21 01:56:14;;;;;;;;;10.50;9.75;;;;;14.83;37.79;100693.50;4984636;28;45266;-60
2022/04/21 01:58:40;;;;;;;;;16.25;9.75;;;;;14.83;37.93;100693.50;4988480;28;45242;-61
2022/04/21 02:01:06;;;;;;;;;9.25;8.75;;;;;14.82;37.56;100683.03;4990169;28;45377;-60
2022/04/21 02:03:32;;;;;;;;;11.75;10.00;;;;;14.83;37.80;100693.50;4988924;28;46159;-60
2022/04/21 02:05:58;;;;;;;;;8.75;8.75;;;;;14.85;37.54;100688.09;4987924;28;45294;-61
2022/04/21 02:08:24;;;;;;;;;6.50;6.50;;;;;14.83;37.51;100684.72;4986059;28;45468;-60
2022/04/21 02:10:50;;;;;;;;;8.00;7.00;;;;;14.83;37.60;100680.25;4989730;28;45392;-62
2022/04/21 02:13:15;;;;;;;;;8.00;7.00;;;;;14.83;37.35;100684.72;4986773;28;46043;-60
2022/04/21 02:15:44;;;;;;;;;9.25;8.00;;;;;14.77;37.68;100680.72;4983968;28;45364;-61
2022/04/21 02:18:09;;;;;;;;;11.75;10.50;;;;;14.76;37.61;100681.69;4992512;28;45241;-60
2022/04/21 02:20:35;;;;;;;;;5.25;5.25;;;;;14.72;37.46;100675.78;4991571;28;45364;-61
2022/04/21 02:23:01;;;;;;;;;6.50;6.00;;;;;14.69;37.74;100680.47;4982056;28;45387;-61
2022/04/21 02:25:26;;;;;;;;;8.25;8.25;;;;;14.67;37.73;100669.16;4981841;28;45324;-61
2022/04/21 02:27:52;;;;;;;;;10.75;8.00;;;;;14.66;37.87;100667.47;4982210;28;45241;-61
2022/04/21 02:30:19;;;;;;;;;7.25;6.75;;;;;14.64;37.53;100659.63;4982126;28;45183;-61
2022/04/21 02:32:45;;;;;;;;;10.25;7.00;;;;;14.61;37.87;100664.31;4981688;28;45345;-60
2022/04/21 02:35:12;;;;;;;;;7.75;7.25;;;;;14.59;37.78;100663.59;4981878;28;45408;-60
2022/04/21 02:37:46;;;;;;;;;9.75;7.50;;;;;14.56;38.00;100661.19;4982000;28;45526;-60
2022/04/21 02:40:13;;;;;;;;;13.25;8.50;;;;;14.52;37.81;100658.75;4981945;28;45330;-61
2022/04/21 02:42:39;;;;;;;;;8.25;7.00;;;;;14.48;37.98;100665.28;4981750;28;45443;-60
2022/04/21 02:45:06;;;;;;;;;8.25;8.25;;;;;14.47;38.08;100655.63;4981854;28;45417;-60
2022/04/21 02:47:34;;;;;;;;;9.00;7.75;;;;;14.47;38.37;100660.94;4981772;28;45301;-60
2022/04/21 02:50:00;;;;;;;;;9.75;8.00;;;;;14.43;38.39;100655.94;4982064;28;45372;-60
2022/04/21 02:52:25;;;;;;;;;8.25;7.50;;;;;14.38;38.57;100647.53;4981510;28;45347;-60
2022/04/21 02:57:35;;;;;;;;;9.00;9.00;;;;;14.31;38.72;100649.78;4985357;28;45341;-60
2022/04/21 03:00:04;;;;;;;;;10.25;9.25;;;;;14.26;38.50;100644.00;4962330;28;45407;-60
2022/04/21 03:02:30;;;;;;;;;9.25;8.25;;;;;14.22;38.89;100658.44;4985311;28;47280;-60
2022/04/21 03:04:55;;;;;;;;;6.00;5.75;;;;;14.20;39.00;100649.75;4975450;28;45292;-60
2022/04/21 03:07:22;;;;;;;;;12.00;11.00;;;;;14.17;39.07;100652.63;4981690;28;45167;-60
2022/04/21 03:09:48;;;;;;;;;8.50;8.50;;;;;14.18;39.45;100654.31;4970224;28;46111;-60
2022/04/21 03:12:14;;;;;;;;;8.50;8.00;;;;;14.18;39.04;100655.16;4962284;28;46139;-60
2022/04/21 03:14:41;;;;;;;;;8.75;8.50;;;;;14.16;38.90;100651.81;4961092;28;45173;-60
2022/04/21 03:17:08;;;;;;;;;10.25;7.50;;;;;14.17;39.28;100647.34;4960971;28;45322;-60
2022/04/21 03:19:35;;;;;;;;;8.25;8.25;;;;;14.14;39.57;100642.25;4962132;28;45507;-61
2022/04/21 03:24:45;;;;;;;;;12.25;9.25;;;;;14.06;39.35;100642.00;4961110;28;45450;-61
2022/04/21 03:27:10;;;;;;;;;8.75;8.00;;;;;14.04;39.74;100639.47;4961939;28;45210;-60
2022/04/21 03:29:39;;;;;;;;;8.00;8.00;;;;;14.05;39.59;100633.19;4961866;28;45227;-60
2022/04/21 03:32:10;;;;;;;;;10.00;8.00;;;;;14.02;39.96;100628.16;4961596;28;46030;-60
2022/04/21 03:34:43;;;;;;;;;12.00;9.75;;;;;13.99;39.73;100625.75;4961494;28;45370;-60
2022/04/21 03:37:14;;;;;;;;;9.50;8.75;;;;;13.97;39.38;100625.00;4967497;28;45286;-60
2022/04/21 03:39:43;;;;;;;;;12.00;11.75;;;;;13.96;40.26;100625.97;4981540;28;45591;-60
2022/04/21 03:42:26;;;;;;;;;8.75;8.25;;;;;13.94;39.64;100625.22;4980999;28;45333;-60
2022/04/21 03:44:52;;;;;;;;;10.25;8.25;;;;;13.93;39.59;100626.19;4981195;28;45407;-60
2022/04/21 03:47:18;;;;;;;;;16.50;11.75;;;;;13.91;39.50;100625.47;4981025;28;45327;-61
2022/04/21 03:49:44;;;;;;;;;7.00;7.00;;;;;13.89;39.36;100620.28;4979840;28;45421;-60
2022/04/21 03:52:10;;;;;;;;;11.50;11.00;;;;;13.88;39.47;100620.38;4981009;28;46244;-61
2022/04/21 03:54:36;;;;;;;;;10.25;9.00;;;;;13.88;39.61;100626.53;4980542;28;45468;-60
2022/04/21 03:57:02;;;;;;;;;8.50;8.50;;;;;13.86;39.70;100622.31;4980885;28;45237;-60
2022/04/21 03:59:27;;;;;;;;;11.50;10.50;;;;;13.86;39.38;100631.09;4981252;28;45509;-60
2022/04/21 04:01:53;;;;;;;;;6.00;5.00;;;;;13.85;39.45;100632.06;4980159;28;46071;-60
2022/04/21 04:04:18;;;;;;;;;7.75;7.75;;;;;13.82;39.29;100634.09;4968510;28;45230;-60
2022/04/21 04:12:12;;;;;;;;;11.75;11.00;;;;;13.74;38.97;100633.81;4980624;28;45294;-60
2022/04/21 04:14:39;;;;;;;;;10.75;10.00;;;;;13.73;39.05;100632.97;4960029;28;45280;-60
2022/04/21 04:17:06;;;;;;;;;9.00;9.00;;;;;13.73;39.03;100626.81;4979526;28;45173;-60
2022/04/21 04:19:33;;;;;;;;;7.00;6.00;;;;;13.68;38.97;100635.97;4980834;28;45304;-60
2022/04/21 04:22:00;;;;;;;;;10.00;7.75;;;;;13.66;39.07;100639.66;4980354;28;45415;-60
2022/04/21 04:24:25;;;;;;;;;11.50;9.00;;;;;13.63;39.18;100637.25;4980539;28;45248;-60
2022/04/21 04:26:51;;;;;;;;;12.25;10.75;;;;;13.61;39.26;100637.38;4984060;28;45192;-61
2022/04/21 04:29:22;;;;;;;;;13.25;10.50;;;;;13.58;39.24;100637.56;4984356;28;45228;-60
2022/04/21 04:31:49;;;;;;;;;10.50;8.25;;;;;13.55;39.38;100643.09;4983730;28;45400;-60
2022/04/21 04:34:15;;;;;;;;;7.25;7.25;;;;;13.54;39.53;100649.38;4983607;28;45308;-60
2022/04/21 04:36:41;;;;;;;;;10.00;9.00;;;;;13.52;39.54;100643.34;4983941;28;45166;-60
2022/04/21 04:39:07;;;;;;;;;10.00;10.00;;;;;13.50;39.75;100641.75;4990261;28;45590;-61
2022/04/21 04:44:17;;;;;;;;;10.25;9.75;;;;;13.46;39.77;100649.06;4983735;28;45235;-60
2022/04/21 04:46:43;;;;;;;;;14.75;13.00;;;;;13.46;39.79;100646.44;4983932;28;45301;-60
2022/04/21 04:49:10;;;;;;;;;13.25;9.25;;;;;13.45;39.67;100652.69;4983619;28;45507;-60
2022/04/21 04:51:40;;;;;;;;;13.00;11.75;;;;;13.46;39.64;100656.16;4983442;28;45358;-60
2022/04/21 04:54:06;;;;;;;;;13.75;13.50;;;;;13.47;39.72;100663.16;4982902;28;45258;-60
2022/04/21 04:56:33;;;;;;;;;16.00;12.75;;;;;13.45;39.60;100663.28;4983430;28;45225;-60
2022/04/21 04:58:58;;;;;;;;;14.25;12.00;;;;;13.45;39.62;100657.13;4983561;28;45578;-60
2022/04/21 05:01:33;;;;;;;;;15.50;11.00;;;;;13.42;39.72;100660.81;4983279;28;46103;-61
2022/04/21 05:04:02;;;;;;;;;11.75;11.25;;;;;13.42;39.66;100660.81;4983325;28;45238;-60
2022/04/21 05:06:28;;;;;;;;;10.50;9.25;;;;;13.42;39.98;100660.81;4983574;28;45333;-60
2022/04/21 05:08:56;;;;;;;;;11.50;11.50;;;;;13.42;39.92;100655.53;4982994;28;45527;-60
2022/04/21 05:11:22;;;;;;;;;6.00;5.50;;;;;13.40;39.79;100655.66;4983266;28;45439;-60
2022/04/21 05:13:47;;;;;;;;;13.00;12.00;;;;;13.39;39.93;100663.72;4982988;28;45501;-60
2022/04/21 05:16:13;;;;;;;;;13.50;11.75;;;;;13.41;39.84;100662.63;4983068;28;45260;-60
2022/04/21 05:18:39;;;;;;;;;4.00;2.75;;;;;13.43;39.65;100669.59;4982825;28;45500;-60
2022/04/21 05:21:05;;;;;;;;;12.75;10.75;;;;;13.43;39.50;100664.31;4982975;28;46111;-60
2022/04/21 05:23:34;;;;;;;;;12.25;10.25;;;;;13.45;39.41;100668.56;4982633;28;45468;-61
2022/04/21 05:26:00;;;;;;;;;12.75;9.00;;;;;13.45;39.59;100671.22;4983108;28;45360;-60
2022/04/21 05:28:26;;;;;;;;;9.50;9.50;;;;;13.43;39.66;100664.31;4982967;28;45224;-60
2022/04/21 05:31:01;;;;;;;;;9.00;9.00;;;;;13.45;39.56;100667.72;4988693;28;45236;-64
2022/04/21 05:33:28;;;;;;;;;10.25;10.25;;;;;13.46;39.96;100664.97;4970098;28;45288;-60
2022/04/21 05:35:55;;;;;;;;;12.50;12.50;;;;;13.53;39.80;100668.00;4982667;28;45286;-59
2022/04/21 05:38:22;;;;;;;;;10.75;10.75;;;;;13.57;39.75;100662.38;4981785;28;45463;-59
2022/04/21 05:40:48;;;;;;;;;16.00;13.50;;;;;13.61;39.80;100665.66;4982244;28;46164;-65
2022/04/21 05:43:18;;;;;;;;;11.50;11.25;;;;;13.63;39.89;100672.50;4982484;28;45339;-64
2022/04/21 05:45:45;;;;;;;;;11.25;10.25;;;;;13.63;39.84;100661.91;4965142;28;45255;-65
2022/04/21 05:48:12;;;;;;;;;12.75;9.75;;;;;13.68;39.66;100665.09;4982862;28;45364;-64
2022/04/21 05:50:38;;;;;;;;;12.25;11.00;;;;;13.73;39.78;100658.59;4982678;28;45352;-65
2022/04/21 05:53:04;;;;;;;;;11.00;10.00;;;;;13.78;39.79;100661.75;4982382;28;45333;-64
2022/04/21 05:55:29;;;;;;;;;10.75;10.75;;;;;13.85;39.84;100658.53;4982203;28;45344;-64
2022/04/21 05:57:55;;;;;;;;;16.25;10.00;;;;;13.94;39.65;100654.38;4965191;28;45547;-64
2022/04/21 06:00:22;;;;;;;;;12.50;12.50;;;;;14.01;39.52;100652.09;4982377;28;45447;-64
2022/04/21 06:02:47;;;;;;;;;12.50;11.50;;;;;14.10;39.69;100652.25;4982471;28;45253;-64
2022/04/21 06:05:13;;;;;;;;;13.00;10.00;;;;;14.20;39.60;100653.25;4982531;28;45286;-64
2022/04/21 06:07:39;;;;;;;;;12.75;11.00;;;;;14.25;39.64;100645.78;4982344;28;45484;-65
2022/04/21 06:10:05;;;;;;;;;15.25;12.50;;;;;14.33;39.44;100642.56;4981703;28;46015;-61
2022/04/21 06:12:30;;;;;;;;;13.50;12.25;;;;;14.42;39.15;100643.66;4982212;28;45353;-64
2022/04/21 06:14:56;;;;;;;;;10.00;9.00;;;;;14.50;39.41;100650.09;4982414;28;45265;-64
2022/04/21 06:17:21;;;;;;;;;13.75;12.50;;;;;14.55;39.43;100648.91;4990084;28;45470;-65
2022/04/21 06:19:47;;;;;;;;;11.75;11.75;;;;;14.62;39.54;100644.81;4987552;28;45532;-66
2022/04/21 06:22:13;;;;;;;;;12.50;11.50;;;;;14.72;39.06;100648.44;4992009;28;45334;-66
2022/04/21 06:24:39;;;;;;;;;13.00;11.25;;;;;14.74;39.27;100651.81;4990567;28;45368;-66
2022/04/21 06:27:04;;;;;;;;;13.00;9.50;;;;;14.76;39.32;100640.09;4988905;28;45991;-65
2022/04/21 06:29:30;;;;;;;;;12.00;9.25;;;;;14.80;39.36;100643.38;4988544;28;45492;-66
2022/04/21 06:31:56;;;;;;;;;14.75;10.25;;;;;14.86;39.69;100642.91;4985636;28;45434;-65
2022/04/21 06:34:22;;;;;;;;;13.25;11.00;;;;;14.98;39.27;100643.72;4986875;28;45443;-66
2022/04/21 06:36:51;;;;;;;;;10.75;9.00;;;;;15.07;39.16;100646.50;4991416;28;45641;-67
2022/04/21 06:39:16;;;;;;;;;12.50;10.50;;;;;15.15;39.21;100637.91;4989231;28;45483;-65
2022/04/21 06:41:42;;;;;;;;;15.50;12.50;;;;;15.18;39.12;100642.16;4987065;28;45309;-65
2022/04/21 06:49:36;;;;;;;;;15.25;11.25;;;;;15.64;39.08;100644.63;4987236;28;45425;-65
2022/04/21 06:52:01;;;;;;;;;14.00;12.00;;;;;15.69;38.42;100634.44;4988794;28;45426;-65
2022/04/21 06:54:27;;;;;;;;;13.00;9.25;;;;;15.67;38.76;100638.22;4985694;28;45466;-65
2022/04/21 06:56:53;;;;;;;;;14.50;12.50;;;;;15.69;39.02;100639.75;4990738;28;45534;-65
2022/04/21 06:59:18;;;;;;;;;11.00;10.00;;;;;15.72;38.21;100630.69;4989226;28;46094;-66
2022/04/21 07:01:47;;;;;;;;;16.00;13.75;;;;;15.73;38.51;100633.25;4989071;28;45229;-64
2022/04/21 07:04:14;;;;;;;;;15.25;12.25;;;;;15.79;38.35;100627.41;4969655;28;45327;-64
2022/04/21 07:06:39;;;;;;;;;17.25;11.00;;;;;15.85;38.33;100629.56;4987244;28;45494;-64
2022/04/21 07:09:05;;;;;;;;;15.00;13.00;;;;;15.84;38.50;100625.22;4988730;28;45901;-66
2022/04/21 07:11:31;;;;;;;;;11.50;10.50;;;;;15.84;38.42;100629.69;4990184;28;45558;-65
2022/04/21 07:13:57;;;;;;;;;12.50;11.00;;;;;15.86;38.02;100633.88;4986570;28;45371;-65
2022/04/21 07:16:22;;;;;;;;;16.50;12.25;;;;;15.80;38.13;100630.88;4986807;28;45622;-65
2022/04/21 07:18:48;;;;;;;;;9.00;8.50;;;;;15.73;37.90;100630.59;4990607;28;45291;-65
2022/04/21 07:21:14;;;;;;;;;12.75;12.25;;;;;15.71;37.96;100631.66;4990232;28;45292;-65
2022/04/21 07:23:41;;;;;;;;;10.50;10.50;;;;;15.69;38.14;100629.13;4986366;28;45389;-65
2022/04/21 07:26:06;;;;;;;;;11.00;9.50;;;;;15.69;37.89;100634.44;4987082;28;45364;-65
2022/04/21 07:28:32;;;;;;;;;12.00;11.50;;;;;15.67;38.38;100624.94;4990828;28;45988;-65
2022/04/21 07:30:58;;;;;;;;;14.75;12.75;;;;;15.69;38.13;100625.63;4989395;28;45431;-65
2022/04/21 07:33:23;;;;;;;;;12.75;10.25;;;;;15.71;37.91;100624.53;4987552;28;45629;-64
2022/04/21 07:35:49;;;;;;;;;12.75;11.25;;;;;15.66;38.31;100613.47;4986376;28;45462;-65
2022/04/21 07:38:14;;;;;;;;;10.50;10.50;;;;;15.68;38.41;100627.44;4984345;28;46122;-64
2022/04/21 07:40:41;;;;;;;;;11.00;10.00;;;;;15.68;38.25;100618.66;4990491;28;45365;-65
2022/04/21 07:43:09;;;;;;;;;21.00;13.25;;;;;15.67;38.05;100615.16;4988731;28;45396;-65
2022/04/21 07:45:38;;;;;;;;;13.75;11.75;;;;;15.73;38.28;100609.34;4988759;28;45309;-65
2022/04/21 07:48:04;;;;;;;;;13.00;10.25;;;;;15.79;38.42;100603.50;4986057;28;45534;-65
2022/04/21 07:50:30;;;;;;;;;17.50;11.50;;;;;15.81;38.59;100601.56;4986989;28;45257;-64
2022/04/21 07:53:14;;;;;;;;;13.00;10.00;;;;;15.85;38.29;100607.47;4990941;28;45333;-64
2022/04/21 07:55:46;;;;;;;;;20.25;12.50;;;;;15.90;38.12;100613.25;4988857;28;45234;-65
2022/04/21 07:58:13;;;;;;;;;14.00;13.75;;;;;15.88;37.91;100609.88;4975966;28;45367;-64
2022/04/21 08:00:40;;;;;;;;;11.50;10.00;;;;;15.81;38.29;100612.19;4971603;28;45232;-68
2022/04/21 08:03:07;;;;;;;;;15.75;11.25;;;;;15.79;38.09;100605.31;4994116;28;45496;-69
2022/04/21 08:05:33;;;;;;;;;16.50;12.25;;;;;15.82;38.13;100605.06;4992693;28;45531;-66
2022/04/21 08:07:59;;;;;;;;;13.25;11.00;;;;;15.87;38.26;100606.34;4991739;28;47524;-69
2022/04/21 08:10:29;;;;;;;;;11.75;10.00;;;;;15.89;37.96;100601.78;4990782;28;45484;-66
2022/04/21 08:12:58;;;;;;;;;15.50;11.75;;;;;15.88;38.64;100596.59;4990281;28;45411;-64
2022/04/21 08:15:28;;;;;;;;;17.25;12.25;;;;;15.91;38.63;100598.97;4989157;28;45451;-63
2022/04/21 08:17:56;;;;;;;;;17.25;13.75;;;;;15.99;39.03;100603.66;4993019;28;45382;-64
2022/04/21 08:20:23;;;;;;;;;15.75;12.00;;;;;16.05;38.74;100608.47;4990219;28;45454;-66
2022/04/21 08:22:49;;;;;;;;;16.25;11.00;;;;;16.09;38.90;100609.88;4991150;28;45329;-66
2022/04/21 08:33:27;;;;;;;;;20.00;14.00;;;;;16.22;39.08;100610.53;4984464;28;45226;-65
2022/04/21 08:35:58;;;;;;;;;15.75;14.25;;;;;16.22;39.22;100609.69;4976083;28;45359;-65
2022/04/21 08:38:28;;;;;;;;;14.75;12.50;;;;;16.25;39.02;100607.59;4989651;28;45466;-64
2022/04/21 08:40:57;;;;;;;;;15.50;14.00;;;;;16.25;39.23;100610.25;4983361;28;45424;-65
2022/04/21 08:43:27;;;;;;;;;12.75;11.75;;;;;16.27;39.05;100610.97;4983854;28;45298;-65
2022/04/21 08:45:53;;;;;;;;;11.50;11.00;;;;;16.30;39.00;100599.25;4983975;28;45263;-65
2022/04/21 08:48:23;;;;;;;;;15.00;14.00;;;;;16.30;39.17;100608.06;4983576;28;45369;-65
2022/04/21 08:50:50;;;;;;;;;15.25;12.75;;;;;16.33;38.33;100601.63;4983431;28;45500;-65
2022/04/21 08:53:26;;;;;;;;;17.50;15.50;;;;;16.38;38.23;100599.44;4983614;28;45412;-64
2022/04/21 08:55:52;;;;;;;;;16.00;16.00;;;;;16.43;38.27;100599.84;4983286;28;45385;-64
2022/04/21 08:58:18;;;;;;;;;17.50;13.50;;;;;16.50;37.98;100594.84;4983430;28;45993;-63
2022/04/21 09:00:44;;;;;;;;;16.25;12.25;;;;;16.60;38.24;100601.09;4983045;28;45431;-64
2022/04/21 09:03:11;;;;;;;;;14.00;14.00;;;;;16.70;37.86;100604.66;4983585;28;45427;-64
2022/04/21 09:05:37;;;;;;;;;16.75;14.25;;;;;16.80;37.64;100610.00;4983436;28;45415;-65
2022/04/21 09:08:03;;;;;;;;;19.00;15.25;;;;;16.89;37.37;100606.53;4983093;28;46063;-65
2022/04/21 09:10:34;;;;;;;;;12.50;12.25;;;;;16.94;37.39;100610.50;4983297;28;45345;-64
2022/04/21 09:13:01;;;;;;;;;15.00;13.00;;;;;16.97;37.25;100599.56;4982449;28;45307;-66
2022/04/21 09:15:28;;;;;;;;;16.25;12.25;;;;;17.02;37.40;100599.16;4983337;28;45631;-66
2022/04/21 09:18:01;;;;;;;;;15.00;14.00;;;;;17.08;37.30;100595.97;4983376;28;45277;-65
2022/04/21 09:20:39;;;;;;;;;17.75;11.75;;;;;17.13;37.72;100590.22;4983128;28;45253;-65
2022/04/21 09:23:10;;;;;;;;;11.75;11.75;;;;;17.22;37.23;100592.06;4982874;28;45222;-66
2022/04/21 09:25:50;;;;;;;;;12.75;10.25;;;;;17.30;37.42;100590.41;4983219;28;45484;-66
2022/04/21 09:28:26;;;;;;;;;11.50;10.50;;;;;17.40;37.15;100589.59;4982802;28;45486;-66
2022/04/21 09:30:56;;;;;;;;;13.50;11.75;;;;;17.46;36.77;100587.22;4983195;28;45340;-66
2022/04/21 09:33:32;;;;;;;;;13.00;12.00;;;;;17.55;37.20;100583.72;4982934;28;45263;-64
2022/04/21 09:35:59;;;;;;;;;11.25;11.25;;;;;17.69;36.87;100589.59;4983263;28;45450;-65
2022/04/21 09:38:25;;;;;;;;;16.00;12.25;;;;;17.80;36.71;100579.66;4988597;28;46160;-65
2022/04/21 09:40:51;;;;;;;;;13.75;12.75;;;;;17.89;36.17;100582.47;4982574;28;45385;-65
2022/04/21 09:43:29;;;;;;;;;12.25;9.50;;;;;17.95;36.85;100579.25;4982829;28;45388;-64
2022/04/21 09:46:10;;;;;;;;;15.25;13.25;;;;;17.99;36.30;100569.97;4981520;28;45508;-65
2022/04/21 09:48:36;;;;;;;;;11.75;11.75;;;;;18.04;36.42;100568.56;4982890;28;45519;-65
2022/04/21 09:51:11;;;;;;;;;14.75;13.00;;;;;18.11;36.28;100571.50;4982672;28;45424;-65
2022/04/21 09:53:59;;;;;;;;;11.75;11.75;;;;;18.19;35.83;100557.44;4982581;28;45286;-64
2022/04/21 09:56:35;;;;;;;;;13.75;12.00;;;;;18.25;35.92;100555.06;4982826;28;45317;-66
2022/04/21 09:59:02;;;;;;;;;13.25;12.50;;;;;18.31;35.56;100553.59;4982463;28;45424;-65
2022/04/21 10:01:29;;;;;;;;;10.75;10.75;;;;;18.34;36.02;100548.84;4982474;28;45257;-66
2022/04/21 10:03:55;;;;;;;;;12.25;11.25;;;;;18.43;36.20;100563.13;4982414;28;45418;-64
2022/04/21 10:06:21;;;;;;;;;15.00;10.00;;;;;18.49;35.20;100557.22;4982600;28;45366;-65
2022/04/21 10:08:51;;;;;;;;;19.50;16.25;;;;;18.53;35.09;100542.59;4964080;28;46813;-65
2022/04/21 10:11:23;;;;;;;;;12.75;10.00;;;;;18.61;34.67;100542.69;4982448;28;45220;-65
2022/04/21 10:13:54;;;;;;;;;16.50;14.00;;;;;18.73;34.16;100543.38;4982310;28;45288;-65
2022/04/21 10:16:21;;;;;;;;;13.50;12.25;;;;;18.78;34.18;100545.59;4982313;28;45228;-64
2022/04/21 10:18:52;;;;;;;;;16.50;13.00;;;;;18.84;33.82;100545.00;4982136;28;45304;-64
2022/04/21 10:21:48;;;;;;;;;16.25;14.00;;;;;18.91;33.66;100538.91;4982106;28;45322;-65
2022/04/21 10:24:20;;;;;;;;;12.25;10.50;;;;;18.97;33.11;100526.81;4979185;28;45531;-65
2022/04/21 10:26:46;;;;;;;;;13.25;11.25;;;;;19.05;33.46;100540.25;4982005;28;45253;-64
2022/04/21 10:29:11;;;;;;;;;16.25;13.50;;;;;19.11;33.01;100520.94;4982008;28;45950;-65
2022/04/21 10:31:59;;;;;;;;;12.75;11.00;;;;;19.23;33.54;100518.91;4981495;28;45222;-65
2022/04/21 10:34:40;;;;;;;;;16.00;11.75;;;;;19.31;33.30;100518.13;4981731;28;45253;-65
2022/04/21 10:37:10;;;;;;;;;15.75;12.50;;;;;19.34;33.21;100515.16;4967593;28;45270;-65
2022/04/21 10:39:36;;;;;;;;;14.00;13.50;;;;;19.36;32.49;100511.34;4983419;28;45803;-65
2022/04/21 10:42:05;;;;;;;;;19.50;12.00;;;;;19.41;32.46;100503.69;4981660;28;45261;-64
2022/04/21 10:44:40;;;;;;;;;14.50;11.50;;;;;19.47;32.51;100512.94;4981869;28;45417;-64
2022/04/21 10:47:31;;;;;;;;;17.25;14.00;;;;;19.49;32.22;100514.44;4982145;28;45268;-65
2022/04/21 10:50:03;;;;;;;;;12.25;12.00;;;;;19.49;31.96;100509.09;4981661;28;45427;-66
2022/04/21 10:57:46;;;;;;;;;16.00;12.50;;;;;19.58;31.43;100507.38;4981939;28;45322;-65
2022/04/21 11:00:26;;;;;;;;;13.25;11.75;;;;;19.61;31.96;100500.91;4981366;28;45297;-65
2022/04/21 11:03:02;;;;;;;;;13.50;12.00;;;;;19.62;32.07;100506.09;4981671;28;45402;-64
2022/04/21 11:05:40;;;;;;;;;17.75;13.75;;;;;19.65;31.58;100504.94;4981622;28;45326;-65
2022/04/21 11:08:17;;;;;;;;;13.25;11.50;;;;;19.67;30.94;100509.16;4981669;28;45325;-65
2022/04/21 11:10:44;;;;;;;;;14.00;12.50;;;;;19.72;31.37;100496.13;4981312;28;46252;-63
2022/04/21 11:13:16;;;;;;;;;12.50;11.00;;;;;19.83;31.30;100486.16;4981378;28;45523;-66
2022/04/21 11:15:45;;;;;;;;;17.00;14.75;;;;;19.91;31.74;100500.47;4981554;28;45297;-65
2022/04/21 11:18:15;;;;;;;;;10.50;9.50;;;;;19.98;31.12;100482.75;4981449;28;45396;-65
2022/04/21 11:20:43;;;;;;;;;19.75;17.75;;;;;20.04;30.84;100483.97;4981073;28;46378;-65
2022/04/21 11:23:29;;;;;;;;;12.00;11.25;;;;;20.08;30.62;100483.50;4980688;28;45511;-65
2022/04/21 11:26:08;;;;;;;;;12.75;11.00;;;;;20.07;30.34;100473.81;4963245;28;45242;-65
2022/04/21 11:28:35;;;;;;;;;13.00;11.75;;;;;20.14;30.65;100470.47;4981134;28;45423;-64
2022/04/21 11:31:04;;;;;;;;;17.00;13.25;;;;;20.17;30.37;100478.22;4981127;28;45480;-65
2022/04/21 11:33:32;;;;;;;;;12.00;10.50;;;;;20.15;30.54;100470.34;4981038;28;45453;-65
2022/04/21 11:36:06;;;;;;;;;9.75;9.75;;;;;20.16;30.24;100474.69;4983605;28;45340;-65
2022/04/21 11:38:32;;;;;;;;;11.75;10.50;;;;;20.17;30.39;100479.03;4990857;28;45620;-64
2022/04/21 11:41:04;;;;;;;;;12.75;12.00;;;;;20.24;31.06;100469.38;4984545;28;45368;-65
2022/04/21 11:43:30;;;;;;;;;11.25;10.25;;;;;20.32;30.68;100468.59;4984770;28;45320;-64
2022/04/21 11:46:05;;;;;;;;;12.25;10.50;;;;;20.37;30.31;100463.56;4984628;28;45171;-64
2022/04/21 11:48:34;;;;;;;;;13.00;12.00;;;;;20.42;30.49;100460.44;4984759;28;45410;-65
2022/04/21 11:51:00;;;;;;;;;14.75;11.75;;;;;20.40;30.91;100470.47;4984288;28;45345;-64
2022/04/21 11:53:35;;;;;;;;;12.00;11.50;;;;;20.37;31.03;100460.91;4984364;28;45328;-64
2022/04/21 11:56:03;;;;;;;;;11.50;11.25;;;;;20.36;30.33;100468.09;4975102;28;45271;-64
2022/04/21 11:58:36;;;;;;;;;13.00;11.50;;;;;20.31;30.21;100449.03;4977312;28;45580;-64